sensor_id;sensor_type;location;lat;lon;timestamp;pressure;altitude;pressure_sealevel;temperature;humidity
6128;BME280;7073;42.672;23.256;2023-02-28T00:01:53;66884.56;;;-143.30;100.00
6128;BME280;7073;42.672;23.256;2023-02-28T00:04:22;66884.56;;;-143.30;100.00
6128;BME280;7073;42.672;23.256;2023-02-28T00:06:49;66884.56;;;-143.30;100.00
6128;BME280;7073;42.672;23.256;2023-02-28T00:09:15;66884.56;;;-143.30;100.00
6128;BME280;7073;42.672;23.256;2023-02-28T00:11:42;66884.56;;;-143.30;100.00
6128;BME280;7073;42.672;23.256;2023-02-28T00:14:09;66884.56;;;-143.30;100.00
6128;BME280;7073;42.672;23.256;2023-02-28T00:16:36;66884.56;;;-143.30;100.00
6128;BME280;7073;42.672;23.256;2023-02-28T00:19:02;66884.56;;;-143.30;100.00
6128;BME280;7073;42.672;23.256;2023-02-28T00:21:31;66884.56;;;-143.30;100.00
6128;BME280;7073;42.672;23.256;2023-02-28T00:23:57;66884.56;;;-143.30;100.00
6128;BME280;7073;42.672;23.256;2023-02-28T00:26:24;66884.56;;;-143.30;100.00
6128;BME280;7073;42.672;23.256;2023-02-28T00:28:51;66884.56;;;-143.30;100.00
6128;BME280;7073;42.672;23.256;2023-02-28T00:31:18;66884.56;;;-143.30;100.00
6128;BME280;7073;42.672;23.256;2023-02-28T00:33:46;66884.56;;;-143.30;100.00
6128;BME280;7073;42.672;23.256;2023-02-28T00:36:13;66884.56;;;-143.30;100.00
6128;BME280;7073;42.672;23.256;2023-02-28T00:38:42;66884.56;;;-143.30;100.00
6128;BME280;7073;42.672;23.256;2023-02-28T00:41:09;66884.56;;;-143.30;100.00
6128;BME280;7073;42.672;23.256;2023-02-28T00:43:37;66884.56;;;-143.30;100.00
6128;BME280;7073;42.672;23.256;2023-02-28T00:46:05;66884.56;;;-143.30;100.00
6128;BME280;7073;42.672;23.256;2023-02-28T00:48:33;66884.56;;;-143.30;100.00
6128;BME280;7073;42.672;23.256;2023-02-28T00:51:00;66884.56;;;-143.30;100.00
6128;BME280;7073;42.672;23.256;2023-02-28T00:53:27;66884.56;;;-143.30;100.00
6128;BME280;7073;42.672;23.256;2023-02-28T00:55:56;66884.56;;;-143.30;100.00
6128;BME280;7073;42.672;23.256;2023-02-28T00:58:23;66884.56;;;-143.30;100.00
6128;BME280;7073;42.672;23.256;2023-02-28T01:00:51;66884.56;;;-143.30;100.00
6128;BME280;7073;42.672;23.256;2023-02-28T01:03:20;66884.56;;;-143.30;100.00
6128;BME280;7073;42.672;23.256;2023-02-28T01:05:47;66884.56;;;-143.30;100.00
6128;BME280;7073;42.672;23.256;2023-02-28T01:08:14;66884.56;;;-143.30;100.00
6128;BME280;7073;42.672;23.256;2023-02-28T01:10:41;66884.56;;;-143.30;100.00
6128;BME280;7073;42.672;23.256;2023-02-28T01:13:10;66884.56;;;-143.30;100.00
6128;BME280;7073;42.672;23.256;2023-02-28T01:15:38;66884.56;;;-143.30;100.00
6128;BME280;7073;42.672;23.256;2023-02-28T01:18:07;66884.56;;;-143.30;100.00
6128;BME280;7073;42.672;23.256;2023-02-28T01:20:36;66884.56;;;-143.30;100.00
6128;BME280;7073;42.672;23.256;2023-02-28T01:23:03;66884.56;;;-143.30;100.00
6128;BME280;7073;42.672;23.256;2023-02-28T01:25:30;66884.56;;;-143.30;100.00
6128;BME280;7073;42.672;23.256;2023-02-28T01:27:56;66884.56;;;-143.30;100.00
6128;BME280;7073;42.672;23.256;2023-02-28T01:30:24;66884.56;;;-143.30;100.00
6128;BME280;7073;42.672;23.256;2023-02-28T01:32:53;66884.56;;;-143.30;100.00
6128;BME280;7073;42.672;23.256;2023-02-28T01:35:20;66884.56;;;-143.30;100.00
6128;BME280;7073;42.672;23.256;2023-02-28T01:37:47;66884.56;;;-143.30;100.00
6128;BME280;7073;42.672;23.256;2023-02-28T01:40:14;66884.56;;;-143.30;100.00
6128;BME280;7073;42.672;23.256;2023-02-28T01:42:41;66884.56;;;-143.30;100.00
6128;BME280;7073;42.672;23.256;2023-02-28T01:45:19;66884.56;;;-143.30;100.00
6128;BME280;7073;42.672;23.256;2023-02-28T01:47:50;66884.56;;;-143.30;100.00
6128;BME280;7073;42.672;23.256;2023-02-28T01:50:21;66884.56;;;-143.30;100.00
6128;BME280;7073;42.672;23.256;2023-02-28T01:52:49;66884.56;;;-143.30;100.00
6128;BME280;7073;42.672;23.256;2023-02-28T01:55:18;66884.56;;;-143.30;100.00
6128;BME280;7073;42.672;23.256;2023-02-28T01:57:50;66884.56;;;-143.30;100.00
6128;BME280;7073;42.672;23.256;2023-02-28T02:00:20;66884.56;;;-143.30;100.00
6128;BME280;7073;42.672;23.256;2023-02-28T02:02:52;66884.56;;;-143.30;100.00
6128;BME280;7073;42.672;23.256;2023-02-28T02:05:21;66884.56;;;-143.30;100.00
6128;BME280;7073;42.672;23.256;2023-02-28T02:07:51;66884.56;;;-143.30;100.00
6128;BME280;7073;42.672;23.256;2023-02-28T02:10:20;66884.56;;;-143.30;100.00
6128;BME280;7073;42.672;23.256;2023-02-28T02:13:05;66884.56;;;-143.30;100.00
6128;BME280;7073;42.672;23.256;2023-02-28T02:15:39;66884.56;;;-143.30;100.00
6128;BME280;7073;42.672;23.256;2023-02-28T02:18:14;66884.56;;;-143.30;100.00
6128;BME280;7073;42.672;23.256;2023-02-28T02:21:13;66884.56;;;-143.30;100.00
6128;BME280;7073;42.672;23.256;2023-02-28T02:24:18;66884.56;;;-143.30;100.00
6128;BME280;7073;42.672;23.256;2023-02-28T02:27:09;66884.56;;;-143.30;100.00
6128;BME280;7073;42.672;23.256;2023-02-28T02:32:54;66884.56;;;-143.30;100.00
6128;BME280;7073;42.672;23.256;2023-02-28T02:35:26;66884.56;;;-143.30;100.00
6128;BME280;7073;42.672;23.256;2023-02-28T02:37:59;66884.56;;;-143.30;100.00
6128;BME280;7073;42.672;23.256;2023-02-28T02:40:35;66884.56;;;-143.30;100.00
6128;BME280;7073;42.672;23.256;2023-02-28T02:43:07;66884.56;;;-143.30;100.00
6128;BME280;7073;42.672;23.256;2023-02-28T02:45:42;66884.56;;;-143.30;100.00
6128;BME280;7073;42.672;23.256;2023-02-28T02:48:20;66884.56;;;-143.30;100.00
6128;BME280;7073;42.672;23.256;2023-02-28T02:50:52;66884.56;;;-143.30;100.00
6128;BME280;7073;42.672;23.256;2023-02-28T02:53:25;66884.56;;;-143.30;100.00
6128;BME280;7073;42.672;23.256;2023-02-28T02:55:54;66884.56;;;-143.30;100.00
6128;BME280;7073;42.672;23.256;2023-02-28T02:58:24;66884.56;;;-143.30;100.00
6128;BME280;7073;42.672;23.256;2023-02-28T03:00:54;66884.56;;;-143.30;100.00
6128;BME280;7073;42.672;23.256;2023-02-28T03:03:23;66884.56;;;-143.30;100.00
6128;BME280;7073;42.672;23.256;2023-02-28T03:05:57;66884.56;;;-143.30;100.00
6128;BME280;7073;42.672;23.256;2023-02-28T03:08:26;66884.56;;;-143.30;100.00
6128;BME280;7073;42.672;23.256;2023-02-28T03:10:56;66884.56;;;-143.30;100.00
6128;BME280;7073;42.672;23.256;2023-02-28T03:13:49;66884.56;;;-143.30;100.00
6128;BME280;7073;42.672;23.256;2023-02-28T03:16:46;66884.56;;;-143.30;100.00
6128;BME280;7073;42.672;23.256;2023-02-28T03:19:29;66884.56;;;-143.30;100.00
6128;BME280;7073;42.672;23.256;2023-02-28T03:22:18;66884.56;;;-143.30;100.00
6128;BME280;7073;42.672;23.256;2023-02-28T03:24:54;66884.56;;;-143.30;100.00
6128;BME280;7073;42.672;23.256;2023-02-28T03:27:26;66884.56;;;-143.30;100.00
6128;BME280;7073;42.672;23.256;2023-02-28T03:30:00;66884.56;;;-143.30;100.00
6128;BME280;7073;42.672;23.256;2023-02-28T03:32:31;66884.56;;;-143.30;100.00
6128;BME280;7073;42.672;23.256;2023-02-28T03:35:03;66884.56;;;-143.30;100.00
6128;BME280;7073;42.672;23.256;2023-02-28T03:37:36;66884.56;;;-143.30;100.00
6128;BME280;7073;42.672;23.256;2023-02-28T03:40:08;66884.56;;;-143.30;100.00
6128;BME280;7073;42.672;23.256;2023-02-28T03:42:39;66884.56;;;-143.30;100.00
6128;BME280;7073;42.672;23.256;2023-02-28T03:45:11;66884.56;;;-143.30;100.00
6128;BME280;7073;42.672;23.256;2023-02-28T03:47:41;66884.56;;;-143.30;100.00
6128;BME280;7073;42.672;23.256;2023-02-28T03:50:14;66884.56;;;-143.30;100.00
6128;BME280;7073;42.672;23.256;2023-02-28T03:52:49;66884.56;;;-143.30;100.00
6128;BME280;7073;42.672;23.256;2023-02-28T03:55:17;66884.56;;;-143.30;100.00
6128;BME280;7073;42.672;23.256;2023-02-28T03:57:53;66884.56;;;-143.30;100.00
6128;BME280;7073;42.672;23.256;2023-02-28T04:00:27;66884.56;;;-143.30;100.00
6128;BME280;7073;42.672;23.256;2023-02-28T04:02:54;66884.56;;;-143.30;100.00
6128;BME280;7073;42.672;23.256;2023-02-28T04:05:22;66884.56;;;-143.30;100.00
6128;BME280;7073;42.672;23.256;2023-02-28T04:07:50;66884.56;;;-143.30;100.00
6128;BME280;7073;42.672;23.256;2023-02-28T04:10:18;66884.56;;;-143.30;100.00
6128;BME280;7073;42.672;23.256;2023-02-28T04:12:45;66884.56;;;-143.30;100.00
6128;BME280;7073;42.672;23.256;2023-02-28T04:15:12;66884.56;;;-143.30;100.00
6128;BME280;7073;42.672;23.256;2023-02-28T04:17:38;66884.56;;;-143.30;100.00
6128;BME280;7073;42.672;23.256;2023-02-28T04:20:06;66884.56;;;-143.30;100.00
6128;BME280;7073;42.672;23.256;2023-02-28T04:22:36;66884.56;;;-143.30;100.00
6128;BME280;7073;42.672;23.256;2023-02-28T04:25:06;66884.56;;;-143.30;100.00
6128;BME280;7073;42.672;23.256;2023-02-28T04:27:33;66884.56;;;-143.30;100.00
6128;BME280;7073;42.672;23.256;2023-02-28T04:30:00;66884.56;;;-143.30;100.00
6128;BME280;7073;42.672;23.256;2023-02-28T04:32:27;66884.56;;;-143.30;100.00
6128;BME280;7073;42.672;23.256;2023-02-28T04:34:53;66884.56;;;-143.30;100.00
6128;BME280;7073;42.672;23.256;2023-02-28T04:37:20;66884.56;;;-143.30;100.00
6128;BME280;7073;42.672;23.256;2023-02-28T04:39:53;66884.56;;;-143.30;100.00
6128;BME280;7073;42.672;23.256;2023-02-28T04:42:21;66884.56;;;-143.30;100.00
6128;BME280;7073;42.672;23.256;2023-02-28T04:44:48;66884.56;;;-143.30;100.00
6128;BME280;7073;42.672;23.256;2023-02-28T04:47:14;66884.56;;;-143.30;100.00
6128;BME280;7073;42.672;23.256;2023-02-28T04:49:41;66884.56;;;-143.30;100.00
6128;BME280;7073;42.672;23.256;2023-02-28T04:52:08;66884.56;;;-143.30;100.00
6128;BME280;7073;42.672;23.256;2023-02-28T04:54:35;66884.56;;;-143.30;100.00
6128;BME280;7073;42.672;23.256;2023-02-28T04:57:04;66884.56;;;-143.30;100.00
6128;BME280;7073;42.672;23.256;2023-02-28T04:59:32;66884.56;;;-143.30;100.00
6128;BME280;7073;42.672;23.256;2023-02-28T05:01:59;66884.56;;;-143.30;100.00
6128;BME280;7073;42.672;23.256;2023-02-28T05:04:29;66884.56;;;-143.30;100.00
6128;BME280;7073;42.672;23.256;2023-02-28T05:06:59;66884.56;;;-143.30;100.00
6128;BME280;7073;42.672;23.256;2023-02-28T05:09:26;66884.56;;;-143.30;100.00
6128;BME280;7073;42.672;23.256;2023-02-28T05:11:53;66884.56;;;-143.30;100.00
6128;BME280;7073;42.672;23.256;2023-02-28T05:14:20;66884.56;;;-143.30;100.00
6128;BME280;7073;42.672;23.256;2023-02-28T05:16:48;66884.56;;;-143.30;100.00
6128;BME280;7073;42.672;23.256;2023-02-28T05:19:15;66884.56;;;-143.30;100.00
6128;BME280;7073;42.672;23.256;2023-02-28T05:21:49;66884.56;;;-143.30;100.00
6128;BME280;7073;42.672;23.256;2023-02-28T05:24:17;66884.56;;;-143.30;100.00
6128;BME280;7073;42.672;23.256;2023-02-28T05:26:48;66884.56;;;-143.30;100.00
6128;BME280;7073;42.672;23.256;2023-02-28T05:29:15;66884.56;;;-143.30;100.00
6128;BME280;7073;42.672;23.256;2023-02-28T05:31:42;66884.56;;;-143.30;100.00
6128;BME280;7073;42.672;23.256;2023-02-28T05:34:10;66884.56;;;-143.30;100.00
6128;BME280;7073;42.672;23.256;2023-02-28T05:36:38;66884.56;;;-143.30;100.00
6128;BME280;7073;42.672;23.256;2023-02-28T05:39:06;66884.56;;;-143.30;100.00
6128;BME280;7073;42.672;23.256;2023-02-28T05:41:38;66884.56;;;-143.30;100.00
6128;BME280;7073;42.672;23.256;2023-02-28T05:44:05;66884.56;;;-143.30;100.00
6128;BME280;7073;42.672;23.256;2023-02-28T05:46:32;66884.56;;;-143.30;100.00
6128;BME280;7073;42.672;23.256;2023-02-28T05:48:59;66884.56;;;-143.30;100.00
6128;BME280;7073;42.672;23.256;2023-02-28T05:51:27;66884.56;;;-143.30;100.00
6128;BME280;7073;42.672;23.256;2023-02-28T05:53:57;66884.56;;;-143.30;100.00
6128;BME280;7073;42.672;23.256;2023-02-28T05:56:24;66884.56;;;-143.30;100.00
6128;BME280;7073;42.672;23.256;2023-02-28T05:58:51;66884.56;;;-143.30;100.00
6128;BME280;7073;42.672;23.256;2023-02-28T06:01:24;66884.56;;;-143.30;100.00
6128;BME280;7073;42.672;23.256;2023-02-28T06:03:51;66884.56;;;-143.30;100.00
6128;BME280;7073;42.672;23.256;2023-02-28T06:06:18;66884.56;;;-143.30;100.00
6128;BME280;7073;42.672;23.256;2023-02-28T06:08:46;66884.56;;;-143.30;100.00
6128;BME280;7073;42.672;23.256;2023-02-28T06:11:13;66884.56;;;-143.30;100.00
6128;BME280;7073;42.672;23.256;2023-02-28T06:13:40;66884.56;;;-143.30;100.00
6128;BME280;7073;42.672;23.256;2023-02-28T06:16:08;66884.56;;;-143.30;100.00
6128;BME280;7073;42.672;23.256;2023-02-28T06:18:35;66884.56;;;-143.30;100.00
6128;BME280;7073;42.672;23.256;2023-02-28T06:21:02;66884.56;;;-143.30;100.00
6128;BME280;7073;42.672;23.256;2023-02-28T06:23:29;94508.25;;;9.76;100.00
6128;BME280;7073;42.672;23.256;2023-02-28T06:25:57;94963.63;;;8.16;100.00
6128;BME280;7073;42.672;23.256;2023-02-28T06:28:24;94963.00;;;8.56;100.00
6128;BME280;7073;42.672;23.256;2023-02-28T06:30:51;94963.00;;;8.56;100.00
6128;BME280;7073;42.672;23.256;2023-02-28T06:33:18;66884.56;;;-143.30;100.00
6128;BME280;7073;42.672;23.256;2023-02-28T06:35:46;66884.56;;;-143.30;100.00
6128;BME280;7073;42.672;23.256;2023-02-28T06:38:13;66884.56;;;-143.30;100.00
6128;BME280;7073;42.672;23.256;2023-02-28T06:40:40;94963.00;;;8.56;100.00
6128;BME280;7073;42.672;23.256;2023-02-28T06:43:08;94963.00;;;8.56;100.00
6128;BME280;7073;42.672;23.256;2023-02-28T06:45:37;66884.56;;;-143.30;100.00
6128;BME280;7073;42.672;23.256;2023-02-28T06:48:04;94963.00;;;8.56;100.00
6128;BME280;7073;42.672;23.256;2023-02-28T06:50:31;66884.56;;;-143.30;100.00
6128;BME280;7073;42.672;23.256;2023-02-28T06:52:57;66884.56;;;-143.30;100.00
6128;BME280;7073;42.672;23.256;2023-02-28T06:55:24;66884.56;;;-143.30;100.00
6128;BME280;7073;42.672;23.256;2023-02-28T06:57:51;66884.56;;;-143.30;100.00
6128;BME280;7073;42.672;23.256;2023-02-28T07:00:21;66884.56;;;-143.30;100.00
6128;BME280;7073;42.672;23.256;2023-02-28T07:02:48;66884.56;;;-143.30;100.00
6128;BME280;7073;42.672;23.256;2023-02-28T07:05:15;66884.56;;;-143.30;100.00
6128;BME280;7073;42.672;23.256;2023-02-28T07:07:42;66884.56;;;-143.30;100.00
6128;BME280;7073;42.672;23.256;2023-02-28T07:10:12;66884.56;;;-143.30;100.00
6128;BME280;7073;42.672;23.256;2023-02-28T07:12:42;94994.91;;;9.27;100.00
6128;BME280;7073;42.672;23.256;2023-02-28T07:15:09;94973.34;;;8.71;100.00
6128;BME280;7073;42.672;23.256;2023-02-28T07:17:37;94994.34;;;8.76;100.00
6128;BME280;7073;42.672;23.256;2023-02-28T07:20:05;94998.50;;;8.71;100.00
6128;BME280;7073;42.672;23.256;2023-02-28T07:22:32;94995.31;;;8.75;100.00
6128;BME280;7073;42.672;23.256;2023-02-28T07:24:59;95000.97;;;8.57;100.00
6128;BME280;7073;42.672;23.256;2023-02-28T07:27:26;94998.25;;;8.66;100.00
6128;BME280;7073;42.672;23.256;2023-02-28T07:29:53;95001.56;;;8.81;100.00
6128;BME280;7073;42.672;23.256;2023-02-28T07:32:20;95000.41;;;8.62;100.00
6128;BME280;7073;42.672;23.256;2023-02-28T07:34:48;94997.69;;;8.70;100.00
6128;BME280;7073;42.672;23.256;2023-02-28T07:37:15;94994.63;;;8.88;100.00
6128;BME280;7073;42.672;23.256;2023-02-28T07:39:41;95009.47;;;8.94;100.00
6128;BME280;7073;42.672;23.256;2023-02-28T07:42:09;94999.78;;;8.81;100.00
6128;BME280;7073;42.672;23.256;2023-02-28T07:44:37;95000.16;;;8.78;100.00
6128;BME280;7073;42.672;23.256;2023-02-28T07:47:07;95000.84;;;8.66;100.00
6128;BME280;7073;42.672;23.256;2023-02-28T07:49:34;95004.41;;;8.86;100.00
6128;BME280;7073;42.672;23.256;2023-02-28T07:52:03;94996.09;;;8.69;100.00
6128;BME280;7073;42.672;23.256;2023-02-28T07:54:31;94982.72;;;8.72;100.00
6128;BME280;7073;42.672;23.256;2023-02-28T07:56:58;94996.19;;;8.82;100.00
6128;BME280;7073;42.672;23.256;2023-02-28T07:59:25;94984.19;;;8.81;100.00
6128;BME280;7073;42.672;23.256;2023-02-28T08:01:52;94988.16;;;8.77;100.00
6128;BME280;7073;42.672;23.256;2023-02-28T08:04:19;94988.22;;;8.84;100.00
6128;BME280;7073;42.672;23.256;2023-02-28T08:06:46;94993.34;;;9.05;100.00
6128;BME280;7073;42.672;23.256;2023-02-28T08:09:14;94988.03;;;9.19;100.00
6128;BME280;7073;42.672;23.256;2023-02-28T08:11:40;94989.38;;;8.81;100.00
6128;BME280;7073;42.672;23.256;2023-02-28T08:14:07;94995.81;;;8.85;100.00
6128;BME280;7073;42.672;23.256;2023-02-28T08:16:34;94996.22;;;8.89;100.00
6128;BME280;7073;42.672;23.256;2023-02-28T08:19:01;94998.25;;;8.93;100.00
6128;BME280;7073;42.672;23.256;2023-02-28T08:21:28;94997.88;;;8.96;100.00
6128;BME280;7073;42.672;23.256;2023-02-28T08:23:54;95003.47;;;8.93;100.00
6128;BME280;7073;42.672;23.256;2023-02-28T08:26:23;95003.59;;;8.85;100.00
6128;BME280;7073;42.672;23.256;2023-02-28T08:28:50;94998.78;;;9.10;100.00
6128;BME280;7073;42.672;23.256;2023-02-28T08:31:17;95005.75;;;9.03;100.00
6128;BME280;7073;42.672;23.256;2023-02-28T08:33:45;95006.50;;;8.97;100.00
6128;BME280;7073;42.672;23.256;2023-02-28T08:36:14;95006.34;;;9.05;100.00
6128;BME280;7073;42.672;23.256;2023-02-28T08:38:41;95006.78;;;9.08;100.00
6128;BME280;7073;42.672;23.256;2023-02-28T08:41:10;95003.59;;;9.13;100.00
6128;BME280;7073;42.672;23.256;2023-02-28T08:43:39;95008.00;;;9.12;100.00
6128;BME280;7073;42.672;23.256;2023-02-28T08:46:07;95006.16;;;9.06;100.00
6128;BME280;7073;42.672;23.256;2023-02-28T08:48:35;95001.63;;;9.15;100.00
6128;BME280;7073;42.672;23.256;2023-02-28T08:51:04;94998.91;;;9.64;100.00
6128;BME280;7073;42.672;23.256;2023-02-28T08:53:32;94997.09;;;9.23;100.00
6128;BME280;7073;42.672;23.256;2023-02-28T08:56:01;95006.22;;;9.47;100.00
6128;BME280;7073;42.672;23.256;2023-02-28T08:58:28;95014.75;;;9.35;100.00
6128;BME280;7073;42.672;23.256;2023-02-28T09:00:56;95001.56;;;9.36;100.00
6128;BME280;7073;42.672;23.256;2023-02-28T09:03:23;95005.63;;;9.52;100.00
6128;BME280;7073;42.672;23.256;2023-02-28T09:05:53;95008.72;;;9.68;100.00
6128;BME280;7073;42.672;23.256;2023-02-28T09:08:21;95005.16;;;9.82;100.00
6128;BME280;7073;42.672;23.256;2023-02-28T09:10:47;95010.75;;;9.73;100.00
6128;BME280;7073;42.672;23.256;2023-02-28T09:13:14;95001.25;;;9.59;100.00
6128;BME280;7073;42.672;23.256;2023-02-28T09:15:41;95000.13;;;9.34;100.00
6128;BME280;7073;42.672;23.256;2023-02-28T09:18:09;94996.34;;;9.36;100.00
6128;BME280;7073;42.672;23.256;2023-02-28T09:20:37;95000.75;;;9.76;100.00
6128;BME280;7073;42.672;23.256;2023-02-28T09:23:04;95003.16;;;9.71;100.00
6128;BME280;7073;42.672;23.256;2023-02-28T09:25:31;94990.56;;;9.81;100.00
6128;BME280;7073;42.672;23.256;2023-02-28T09:27:58;94994.81;;;9.96;100.00
6128;BME280;7073;42.672;23.256;2023-02-28T09:30:24;94995.91;;;9.67;100.00
6128;BME280;7073;42.672;23.256;2023-02-28T09:32:51;94989.56;;;9.82;100.00
6128;BME280;7073;42.672;23.256;2023-02-28T09:35:21;94998.38;;;9.88;100.00
6128;BME280;7073;42.672;23.256;2023-02-28T09:37:49;94992.25;;;10.02;100.00
6128;BME280;7073;42.672;23.256;2023-02-28T09:40:17;94997.13;;;9.71;100.00
6128;BME280;7073;42.672;23.256;2023-02-28T09:42:46;94997.34;;;9.76;100.00
6128;BME280;7073;42.672;23.256;2023-02-28T09:45:22;94999.34;;;10.21;100.00
6128;BME280;7073;42.672;23.256;2023-02-28T09:47:51;94988.00;;;9.95;100.00
6128;BME280;7073;42.672;23.256;2023-02-28T09:50:28;94987.25;;;10.07;100.00
6128;BME280;7073;42.672;23.256;2023-02-28T09:52:58;94994.56;;;10.38;100.00
6128;BME280;7073;42.672;23.256;2023-02-28T09:55:29;94984.88;;;10.12;100.00
6128;BME280;7073;42.672;23.256;2023-02-28T09:57:57;94987.72;;;10.24;100.00
6128;BME280;7073;42.672;23.256;2023-02-28T10:00:29;94987.84;;;10.03;100.00
6128;BME280;7073;42.672;23.256;2023-02-28T10:03:06;94989.69;;;10.15;100.00
6128;BME280;7073;42.672;23.256;2023-02-28T10:05:49;94982.75;;;10.62;100.00
6128;BME280;7073;42.672;23.256;2023-02-28T10:08:22;94986.00;;;10.64;100.00
6128;BME280;7073;42.672;23.256;2023-02-28T10:10:54;94986.94;;;10.36;100.00
6128;BME280;7073;42.672;23.256;2023-02-28T10:13:25;94967.31;;;10.40;100.00
6128;BME280;7073;42.672;23.256;2023-02-28T10:15:55;94964.34;;;10.76;100.00
6128;BME280;7073;42.672;23.256;2023-02-28T10:18:25;94963.53;;;10.76;100.00
6128;BME280;7073;42.672;23.256;2023-02-28T10:20:55;94971.34;;;11.02;100.00
6128;BME280;7073;42.672;23.256;2023-02-28T10:23:25;94966.25;;;11.33;100.00
6128;BME280;7073;42.672;23.256;2023-02-28T10:25:57;94956.47;;;11.09;100.00
6128;BME280;7073;42.672;23.256;2023-02-28T10:28:25;94957.84;;;11.31;100.00
6128;BME280;7073;42.672;23.256;2023-02-28T10:30:53;94956.03;;;11.32;100.00
6128;BME280;7073;42.672;23.256;2023-02-28T10:33:23;94952.84;;;11.23;100.00
6128;BME280;7073;42.672;23.256;2023-02-28T10:35:50;94951.78;;;11.44;100.00
6128;BME280;7073;42.672;23.256;2023-02-28T10:38:21;94937.78;;;11.89;100.00
6128;BME280;7073;42.672;23.256;2023-02-28T10:40:48;94923.59;;;11.72;100.00
6128;BME280;7073;42.672;23.256;2023-02-28T10:43:20;94929.00;;;12.15;100.00
6128;BME280;7073;42.672;23.256;2023-02-28T10:46:10;94922.34;;;12.50;99.57
6128;BME280;7073;42.672;23.256;2023-02-28T10:48:41;94912.75;;;13.12;96.93
6128;BME280;7073;42.672;23.256;2023-02-28T10:51:10;94913.72;;;13.35;96.31
6128;BME280;7073;42.672;23.256;2023-02-28T10:53:45;94907.13;;;13.51;94.66
6128;BME280;7073;42.672;23.256;2023-02-28T10:56:16;94909.09;;;14.03;93.46
6128;BME280;7073;42.672;23.256;2023-02-28T10:58:53;94913.84;;;14.06;90.00
6128;BME280;7073;42.672;23.256;2023-02-28T11:01:22;94899.47;;;14.68;88.50
6128;BME280;7073;42.672;23.256;2023-02-28T11:03:50;94900.81;;;14.59;86.80
6128;BME280;7073;42.672;23.256;2023-02-28T11:06:19;94894.31;;;14.50;85.70
6128;BME280;7073;42.672;23.256;2023-02-28T11:08:50;94894.25;;;14.80;83.34
6128;BME280;7073;42.672;23.256;2023-02-28T11:11:18;94887.84;;;14.76;84.50
6128;BME280;7073;42.672;23.256;2023-02-28T11:13:47;94886.16;;;14.93;81.43
6128;BME280;7073;42.672;23.256;2023-02-28T11:16:16;94889.88;;;15.32;79.32
6128;BME280;7073;42.672;23.256;2023-02-28T11:18:47;94886.78;;;14.54;77.41
6128;BME280;7073;42.672;23.256;2023-02-28T11:21:22;94895.59;;;14.71;78.07
6128;BME280;7073;42.672;23.256;2023-02-28T11:23:56;94867.75;;;14.58;80.55
6128;BME280;7073;42.672;23.256;2023-02-28T11:26:40;94875.94;;;15.20;79.83
6128;BME280;7073;42.672;23.256;2023-02-28T11:29:18;94872.19;;;15.27;77.83
6128;BME280;7073;42.672;23.256;2023-02-28T11:32:02;94878.75;;;15.42;76.83
6128;BME280;7073;42.672;23.256;2023-02-28T11:34:29;94882.66;;;15.51;76.48
6128;BME280;7073;42.672;23.256;2023-02-28T11:36:59;94882.22;;;15.54;75.76
6128;BME280;7073;42.672;23.256;2023-02-28T11:39:28;94873.03;;;15.68;74.32
6128;BME280;7073;42.672;23.256;2023-02-28T11:45:15;94879.97;;;16.02;73.35
6128;BME280;7073;42.672;23.256;2023-02-28T11:47:47;94872.56;;;15.99;74.51
6128;BME280;7073;42.672;23.256;2023-02-28T11:50:39;94873.31;;;16.11;72.27
6128;BME280;7073;42.672;23.256;2023-02-28T11:53:16;94870.72;;;16.44;71.21
6128;BME280;7073;42.672;23.256;2023-02-28T11:55:49;94867.06;;;16.45;71.15
6128;BME280;7073;42.672;23.256;2023-02-28T11:58:34;94873.00;;;15.79;71.37
6128;BME280;7073;42.672;23.256;2023-02-28T12:01:30;94870.16;;;16.42;69.41
6128;BME280;7073;42.672;23.256;2023-02-28T12:04:21;94871.34;;;16.51;68.31
6128;BME280;7073;42.672;23.256;2023-02-28T12:06:57;94866.59;;;16.48;65.75
6128;BME280;7073;42.672;23.256;2023-02-28T12:09:45;94868.34;;;16.15;68.32
6128;BME280;7073;42.672;23.256;2023-02-28T12:12:22;94858.72;;;16.20;67.93
6128;BME280;7073;42.672;23.256;2023-02-28T12:15:00;94862.94;;;16.05;70.14
6128;BME280;7073;42.672;23.256;2023-02-28T12:17:46;94869.16;;;15.99;68.52
6128;BME280;7073;42.672;23.256;2023-02-28T12:20:25;94863.31;;;15.68;69.66
6128;BME280;7073;42.672;23.256;2023-02-28T12:23:09;94856.28;;;15.34;71.95
6128;BME280;7073;42.672;23.256;2023-02-28T12:25:50;94852.88;;;15.33;71.33
6128;BME280;7073;42.672;23.256;2023-02-28T12:28:25;94860.34;;;14.90;73.80
6128;BME280;7073;42.672;23.256;2023-02-28T12:30:57;94852.56;;;15.18;73.60
6128;BME280;7073;42.672;23.256;2023-02-28T12:33:31;94870.44;;;15.33;72.58
6128;BME280;7073;42.672;23.256;2023-02-28T12:36:04;94863.03;;;15.53;70.99
6128;BME280;7073;42.672;23.256;2023-02-28T12:38:36;94859.59;;;15.41;70.39
6128;BME280;7073;42.672;23.256;2023-02-28T12:41:08;94852.06;;;15.45;70.29
6128;BME280;7073;42.672;23.256;2023-02-28T12:43:41;94845.38;;;15.14;72.62
6128;BME280;7073;42.672;23.256;2023-02-28T12:46:14;94859.34;;;14.80;72.64
6128;BME280;7073;42.672;23.256;2023-02-28T12:48:44;94847.81;;;14.46;75.25
6128;BME280;7073;42.672;23.256;2023-02-28T12:51:13;94844.72;;;14.60;74.41
6128;BME280;7073;42.672;23.256;2023-02-28T12:53:59;94852.50;;;14.90;72.67
6128;BME280;7073;42.672;23.256;2023-02-28T12:56:38;94847.47;;;14.77;72.39
6128;BME280;7073;42.672;23.256;2023-02-28T12:59:14;94840.19;;;14.91;72.78
6128;BME280;7073;42.672;23.256;2023-02-28T13:02:08;94848.00;;;14.44;73.98
6128;BME280;7073;42.672;23.256;2023-02-28T13:10:44;94840.19;;;14.15;76.26
6128;BME280;7073;42.672;23.256;2023-02-28T13:13:15;94833.31;;;14.32;74.83
6128;BME280;7073;42.672;23.256;2023-02-28T13:15:59;94834.44;;;14.36;73.11
6128;BME280;7073;42.672;23.256;2023-02-28T13:18:30;94843.97;;;14.19;73.69
6128;BME280;7073;42.672;23.256;2023-02-28T13:20:57;94840.66;;;14.12;74.11
6128;BME280;7073;42.672;23.256;2023-02-28T13:23:40;94837.44;;;14.09;76.12